sensor_id;sensor_type;location;lat;lon;timestamp;temperature;humidity
11772;DHT22;12556;55.748;13.194;2023-06-14T00:01:07;12.00;96.40
11772;DHT22;12556;55.748;13.194;2023-06-14T00:03:35;12.00;96.50
11772;DHT22;12556;55.748;13.194;2023-06-14T00:06:02;11.90;96.50
11772;DHT22;12556;55.748;13.194;2023-06-14T00:08:29;11.90;96.70
11772;DHT22;12556;55.748;13.194;2023-06-14T00:10:57;11.80;96.80
11772;DHT22;12556;55.748;13.194;2023-06-14T00:13:24;11.80;96.90
11772;DHT22;12556;55.748;13.194;2023-06-14T00:15:50;11.70;96.90
11772;DHT22;12556;55.748;13.194;2023-06-14T00:18:20;11.70;97.10
11772;DHT22;12556;55.748;13.194;2023-06-14T00:20:50;11.60;97.20
11772;DHT22;12556;55.748;13.194;2023-06-14T00:23:17;11.60;97.40
11772;DHT22;12556;55.748;13.194;2023-06-14T00:25:44;11.50;97.60
11772;DHT22;12556;55.748;13.194;2023-06-14T00:28:13;11.50;97.80
11772;DHT22;12556;55.748;13.194;2023-06-14T00:30:40;11.40;97.80
11772;DHT22;12556;55.748;13.194;2023-06-14T00:33:06;11.40;98.00
11772;DHT22;12556;55.748;13.194;2023-06-14T00:35:33;11.40;98.20
11772;DHT22;12556;55.748;13.194;2023-06-14T00:38:00;11.30;98.20
11772;DHT22;12556;55.748;13.194;2023-06-14T00:40:27;11.30;98.60
11772;DHT22;12556;55.748;13.194;2023-06-14T00:42:54;11.30;98.40
11772;DHT22;12556;55.748;13.194;2023-06-14T00:45:22;11.30;98.50
11772;DHT22;12556;55.748;13.194;2023-06-14T00:47:50;11.20;98.60
11772;DHT22;12556;55.748;13.194;2023-06-14T00:50:17;11.20;98.60
11772;DHT22;12556;55.748;13.194;2023-06-14T00:52:45;11.10;98.60
11772;DHT22;12556;55.748;13.194;2023-06-14T00:55:13;11.10;98.90
11772;DHT22;12556;55.748;13.194;2023-06-14T00:57:40;11.00;99.10
11772;DHT22;12556;55.748;13.194;2023-06-14T01:00:08;11.00;99.30
11772;DHT22;12556;55.748;13.194;2023-06-14T01:02:37;11.00;99.40
11772;DHT22;12556;55.748;13.194;2023-06-14T01:05:05;11.00;99.50
11772;DHT22;12556;55.748;13.194;2023-06-14T01:07:43;11.00;99.60
11772;DHT22;12556;55.748;13.194;2023-06-14T01:10:26;10.90;99.70
11772;DHT22;12556;55.748;13.194;2023-06-14T01:13:02;10.90;99.80
11772;DHT22;12556;55.748;13.194;2023-06-14T01:15:30;10.90;99.90
11772;DHT22;12556;55.748;13.194;2023-06-14T01:17:59;10.80;99.90
11772;DHT22;12556;55.748;13.194;2023-06-14T01:20:29;10.80;99.90
11772;DHT22;12556;55.748;13.194;2023-06-14T01:22:58;10.70;99.90
11772;DHT22;12556;55.748;13.194;2023-06-14T01:25:25;10.70;99.90
11772;DHT22;12556;55.748;13.194;2023-06-14T01:27:57;10.70;99.90
11772;DHT22;12556;55.748;13.194;2023-06-14T01:30:24;10.60;99.90
11772;DHT22;12556;55.748;13.194;2023-06-14T01:32:52;10.60;99.90
11772;DHT22;12556;55.748;13.194;2023-06-14T01:35:20;10.60;99.90
11772;DHT22;12556;55.748;13.194;2023-06-14T01:37:48;10.60;99.90
11772;DHT22;12556;55.748;13.194;2023-06-14T01:40:18;10.50;99.90
11772;DHT22;12556;55.748;13.194;2023-06-14T01:42:46;10.50;99.90
11772;DHT22;12556;55.748;13.194;2023-06-14T01:45:14;10.50;99.90
11772;DHT22;12556;55.748;13.194;2023-06-14T01:47:42;10.50;99.90
11772;DHT22;12556;55.748;13.194;2023-06-14T01:50:10;10.50;99.90
11772;DHT22;12556;55.748;13.194;2023-06-14T01:52:37;10.50;99.90
11772;DHT22;12556;55.748;13.194;2023-06-14T01:55:05;10.50;99.90
11772;DHT22;12556;55.748;13.194;2023-06-14T01:57:35;10.50;99.90
11772;DHT22;12556;55.748;13.194;2023-06-14T02:00:02;10.50;99.90
11772;DHT22;12556;55.748;13.194;2023-06-14T02:02:29;10.50;99.90
11772;DHT22;12556;55.748;13.194;2023-06-14T02:04:56;10.50;99.90
11772;DHT22;12556;55.748;13.194;2023-06-14T02:07:23;10.50;99.90
11772;DHT22;12556;55.748;13.194;2023-06-14T02:09:50;10.60;99.90
11772;DHT22;12556;55.748;13.194;2023-06-14T02:12:17;10.60;99.90
11772;DHT22;12556;55.748;13.194;2023-06-14T02:14:45;10.60;99.90
11772;DHT22;12556;55.748;13.194;2023-06-14T02:17:12;10.60;99.90
11772;DHT22;12556;55.748;13.194;2023-06-14T02:19:39;10.70;99.90
11772;DHT22;12556;55.748;13.194;2023-06-14T02:22:07;10.60;99.90
11772;DHT22;12556;55.748;13.194;2023-06-14T02:24:33;10.60;99.90
11772;DHT22;12556;55.748;13.194;2023-06-14T02:27:01;10.70;99.90
11772;DHT22;12556;55.748;13.194;2023-06-14T02:29:28;10.70;99.90
11772;DHT22;12556;55.748;13.194;2023-06-14T02:31:56;10.60;99.90
11772;DHT22;12556;55.748;13.194;2023-06-14T02:34:23;10.60;99.90
11772;DHT22;12556;55.748;13.194;2023-06-14T02:36:50;10.60;99.90
11772;DHT22;12556;55.748;13.194;2023-06-14T02:39:18;10.60;99.90
11772;DHT22;12556;55.748;13.194;2023-06-14T02:41:46;10.60;99.90
11772;DHT22;12556;55.748;13.194;2023-06-14T02:44:13;10.50;99.90
11772;DHT22;12556;55.748;13.194;2023-06-14T02:46:40;10.50;99.90
11772;DHT22;12556;55.748;13.194;2023-06-14T02:49:11;10.60;99.90
11772;DHT22;12556;55.748;13.194;2023-06-14T02:51:38;10.60;99.90
11772;DHT22;12556;55.748;13.194;2023-06-14T02:54:05;10.60;99.90
11772;DHT22;12556;55.748;13.194;2023-06-14T02:56:32;10.60;99.90
11772;DHT22;12556;55.748;13.194;2023-06-14T02:58:59;10.60;99.90
11772;DHT22;12556;55.748;13.194;2023-06-14T03:01:26;10.60;99.90
11772;DHT22;12556;55.748;13.194;2023-06-14T03:04:00;10.70;99.90
11772;DHT22;12556;55.748;13.194;2023-06-14T03:06:28;10.70;99.90
11772;DHT22;12556;55.748;13.194;2023-06-14T03:08:56;10.70;99.90
11772;DHT22;12556;55.748;13.194;2023-06-14T03:11:25;10.70;99.90
11772;DHT22;12556;55.748;13.194;2023-06-14T03:13:52;10.80;99.90
11772;DHT22;12556;55.748;13.194;2023-06-14T03:16:19;10.70;99.90
11772;DHT22;12556;55.748;13.194;2023-06-14T03:18:49;10.70;99.90
11772;DHT22;12556;55.748;13.194;2023-06-14T03:21:16;10.80;99.90
11772;DHT22;12556;55.748;13.194;2023-06-14T03:23:44;10.80;99.90
11772;DHT22;12556;55.748;13.194;2023-06-14T03:26:11;10.80;99.90
11772;DHT22;12556;55.748;13.194;2023-06-14T03:28:40;10.80;99.90
11772;DHT22;12556;55.748;13.194;2023-06-14T03:31:07;10.80;99.90
11772;DHT22;12556;55.748;13.194;2023-06-14T03:33:34;10.90;99.90
11772;DHT22;12556;55.748;13.194;2023-06-14T03:36:02;10.90;99.90
11772;DHT22;12556;55.748;13.194;2023-06-14T03:38:29;10.90;99.90
11772;DHT22;12556;55.748;13.194;2023-06-14T03:40:57;11.00;99.90
11772;DHT22;12556;55.748;13.194;2023-06-14T03:43:24;11.10;99.90
11772;DHT22;12556;55.748;13.194;2023-06-14T03:45:51;11.10;99.90
11772;DHT22;12556;55.748;13.194;2023-06-14T03:48:18;11.20;99.90
11772;DHT22;12556;55.748;13.194;2023-06-14T03:50:44;11.30;99.90
11772;DHT22;12556;55.748;13.194;2023-06-14T03:53:11;11.30;99.90
11772;DHT22;12556;55.748;13.194;2023-06-14T03:55:38;11.40;99.90
11772;DHT22;12556;55.748;13.194;2023-06-14T03:58:07;11.50;99.90
11772;DHT22;12556;55.748;13.194;2023-06-14T04:00:33;11.60;99.90
11772;DHT22;12556;55.748;13.194;2023-06-14T04:03:01;11.70;99.90
11772;DHT22;12556;55.748;13.194;2023-06-14T04:05:30;11.70;99.90
11772;DHT22;12556;55.748;13.194;2023-06-14T04:07:57;11.90;99.90
11772;DHT22;12556;55.748;13.194;2023-06-14T04:10:24;12.00;99.90
11772;DHT22;12556;55.748;13.194;2023-06-14T04:12:51;12.10;99.90
11772;DHT22;12556;55.748;13.194;2023-06-14T04:15:19;12.20;99.90
11772;DHT22;12556;55.748;13.194;2023-06-14T04:17:46;12.30;99.90
11772;DHT22;12556;55.748;13.194;2023-06-14T04:20:13;12.50;99.90
11772;DHT22;12556;55.748;13.194;2023-06-14T04:22:40;12.60;99.90
11772;DHT22;12556;55.748;13.194;2023-06-14T04:25:09;12.80;99.90
11772;DHT22;12556;55.748;13.194;2023-06-14T04:27:37;12.90;99.90
11772;DHT22;12556;55.748;13.194;2023-06-14T04:30:06;13.00;99.90
11772;DHT22;12556;55.748;13.194;2023-06-14T04:32:34;13.20;99.90
11772;DHT22;12556;55.748;13.194;2023-06-14T04:35:05;13.30;99.90
11772;DHT22;12556;55.748;13.194;2023-06-14T04:37:32;13.50;99.90
11772;DHT22;12556;55.748;13.194;2023-06-14T04:40:00;13.60;99.90
11772;DHT22;12556;55.748;13.194;2023-06-14T04:42:30;13.80;99.90
11772;DHT22;12556;55.748;13.194;2023-06-14T04:44:57;13.90;99.90
11772;DHT22;12556;55.748;13.194;2023-06-14T04:47:24;14.10;99.90
11772;DHT22;12556;55.748;13.194;2023-06-14T04:49:56;14.30;99.90
11772;DHT22;12556;55.748;13.194;2023-06-14T04:52:23;14.40;99.90
11772;DHT22;12556;55.748;13.194;2023-06-14T04:54:52;14.50;99.90
11772;DHT22;12556;55.748;13.194;2023-06-14T04:57:19;14.60;99.90
11772;DHT22;12556;55.748;13.194;2023-06-14T04:59:47;14.80;99.90
11772;DHT22;12556;55.748;13.194;2023-06-14T05:02:20;14.90;99.90
11772;DHT22;12556;55.748;13.194;2023-06-14T05:04:47;15.00;99.90
11772;DHT22;12556;55.748;13.194;2023-06-14T05:07:15;15.10;99.90
11772;DHT22;12556;55.748;13.194;2023-06-14T05:09:43;15.20;99.90
11772;DHT22;12556;55.748;13.194;2023-06-14T05:12:10;15.40;99.90
11772;DHT22;12556;55.748;13.194;2023-06-14T05:14:37;15.50;99.90
11772;DHT22;12556;55.748;13.194;2023-06-14T05:17:04;15.60;99.90
11772;DHT22;12556;55.748;13.194;2023-06-14T05:19:31;15.80;99.90
11772;DHT22;12556;55.748;13.194;2023-06-14T05:21:58;16.00;99.90
11772;DHT22;12556;55.748;13.194;2023-06-14T05:24:26;16.00;99.50
11772;DHT22;12556;55.748;13.194;2023-06-14T05:26:55;16.30;99.20
11772;DHT22;12556;55.748;13.194;2023-06-14T05:29:21;16.50;98.80
11772;DHT22;12556;55.748;13.194;2023-06-14T05:31:48;16.70;98.30
11772;DHT22;12556;55.748;13.194;2023-06-14T05:34:15;17.00;97.60
11772;DHT22;12556;55.748;13.194;2023-06-14T05:36:42;17.20;97.10
11772;DHT22;12556;55.748;13.194;2023-06-14T05:39:09;17.40;96.80
11772;DHT22;12556;55.748;13.194;2023-06-14T05:41:37;17.50;96.50
11772;DHT22;12556;55.748;13.194;2023-06-14T05:44:04;17.80;96.30
11772;DHT22;12556;55.748;13.194;2023-06-14T05:46:31;18.00;95.90
11772;DHT22;12556;55.748;13.194;2023-06-14T05:48:58;18.30;95.50
11772;DHT22;12556;55.748;13.194;2023-06-14T05:51:25;18.40;95.00
11772;DHT22;12556;55.748;13.194;2023-06-14T05:53:52;18.50;94.70
11772;DHT22;12556;55.748;13.194;2023-06-14T05:56:19;18.70;94.60
11772;DHT22;12556;55.748;13.194;2023-06-14T05:58:48;18.90;94.40
11772;DHT22;12556;55.748;13.194;2023-06-14T06:01:15;19.10;93.90
11772;DHT22;12556;55.748;13.194;2023-06-14T06:03:42;19.30;93.40
11772;DHT22;12556;55.748;13.194;2023-06-14T06:06:11;19.50;93.10
11772;DHT22;12556;55.748;13.194;2023-06-14T06:08:38;19.60;92.70
11772;DHT22;12556;55.748;13.194;2023-06-14T06:11:06;19.70;92.30
11772;DHT22;12556;55.748;13.194;2023-06-14T06:13:32;19.80;92.20
11772;DHT22;12556;55.748;13.194;2023-06-14T06:16:02;19.90;91.90
11772;DHT22;12556;55.748;13.194;2023-06-14T06:18:28;20.20;91.50
11772;DHT22;12556;55.748;13.194;2023-06-14T06:20:55;20.40;91.10
11772;DHT22;12556;55.748;13.194;2023-06-14T06:23:22;20.50;90.80
11772;DHT22;12556;55.748;13.194;2023-06-14T06:25:49;20.60;90.20
11772;DHT22;12556;55.748;13.194;2023-06-14T06:28:16;20.70;90.00
11772;DHT22;12556;55.748;13.194;2023-06-14T06:30:43;20.80;90.10
11772;DHT22;12556;55.748;13.194;2023-06-14T06:33:12;21.10;89.80
11772;DHT22;12556;55.748;13.194;2023-06-14T06:35:39;21.20;89.40
11772;DHT22;12556;55.748;13.194;2023-06-14T06:38:06;21.30;88.90
11772;DHT22;12556;55.748;13.194;2023-06-14T06:40:34;21.40;87.70
11772;DHT22;12556;55.748;13.194;2023-06-14T06:43:02;21.60;87.10
11772;DHT22;12556;55.748;13.194;2023-06-14T06:45:29;21.80;85.80
11772;DHT22;12556;55.748;13.194;2023-06-14T06:47:56;21.90;85.10
11772;DHT22;12556;55.748;13.194;2023-06-14T06:50:24;22.00;84.20
11772;DHT22;12556;55.748;13.194;2023-06-14T06:52:51;22.00;83.40
11772;DHT22;12556;55.748;13.194;2023-06-14T06:55:18;22.20;82.50
11772;DHT22;12556;55.748;13.194;2023-06-14T06:57:45;22.40;81.30
11772;DHT22;12556;55.748;13.194;2023-06-14T07:00:12;22.70;79.80
11772;DHT22;12556;55.748;13.194;2023-06-14T07:02:39;22.90;77.70
11772;DHT22;12556;55.748;13.194;2023-06-14T07:05:06;23.10;77.70
11772;DHT22;12556;55.748;13.194;2023-06-14T07:07:35;23.30;76.40
11772;DHT22;12556;55.748;13.194;2023-06-14T07:10:02;23.50;75.50
11772;DHT22;12556;55.748;13.194;2023-06-14T07:12:30;23.70;74.30
11772;DHT22;12556;55.748;13.194;2023-06-14T07:14:59;23.90;71.00
11772;DHT22;12556;55.748;13.194;2023-06-14T07:17:26;24.00;70.50
11772;DHT22;12556;55.748;13.194;2023-06-14T07:19:53;24.00;70.50
11772;DHT22;12556;55.748;13.194;2023-06-14T07:22:19;24.00;70.30
11772;DHT22;12556;55.748;13.194;2023-06-14T07:24:48;24.10;70.00
11772;DHT22;12556;55.748;13.194;2023-06-14T07:27:15;24.30;68.90
11772;DHT22;12556;55.748;13.194;2023-06-14T07:29:42;24.50;67.40
11772;DHT22;12556;55.748;13.194;2023-06-14T07:32:09;24.80;66.60
11772;DHT22;12556;55.748;13.194;2023-06-14T07:34:36;25.10;65.10
11772;DHT22;12556;55.748;13.194;2023-06-14T07:37:03;25.20;63.50
11772;DHT22;12556;55.748;13.194;2023-06-14T07:39:30;25.00;63.10
11772;DHT22;12556;55.748;13.194;2023-06-14T07:41:58;25.00;62.30
11772;DHT22;12556;55.748;13.194;2023-06-14T07:44:25;25.00;61.40
11772;DHT22;12556;55.748;13.194;2023-06-14T07:46:52;25.20;59.70
11772;DHT22;12556;55.748;13.194;2023-06-14T07:49:19;25.60;59.30
11772;DHT22;12556;55.748;13.194;2023-06-14T07:51:46;25.70;59.30
11772;DHT22;12556;55.748;13.194;2023-06-14T07:54:13;25.70;58.10
11772;DHT22;12556;55.748;13.194;2023-06-14T07:56:41;25.70;57.30
11772;DHT22;12556;55.748;13.194;2023-06-14T07:59:10;25.90;56.80
11772;DHT22;12556;55.748;13.194;2023-06-14T08:01:36;26.20;56.30
11772;DHT22;12556;55.748;13.194;2023-06-14T08:04:05;26.40;55.90
11772;DHT22;12556;55.748;13.194;2023-06-14T08:06:33;26.20;56.60
11772;DHT22;12556;55.748;13.194;2023-06-14T08:09:00;26.30;56.40
11772;DHT22;12556;55.748;13.194;2023-06-14T08:11:26;26.50;55.80
11772;DHT22;12556;55.748;13.194;2023-06-14T08:13:53;26.70;54.90
11772;DHT22;12556;55.748;13.194;2023-06-14T08:16:22;26.90;54.50
11772;DHT22;12556;55.748;13.194;2023-06-14T08:18:48;27.00;53.00
11772;DHT22;12556;55.748;13.194;2023-06-14T08:21:16;27.10;52.20
11772;DHT22;12556;55.748;13.194;2023-06-14T08:23:43;27.10;52.20
11772;DHT22;12556;55.748;13.194;2023-06-14T08:26:10;26.70;53.30
11772;DHT22;12556;55.748;13.194;2023-06-14T08:28:37;26.70;54.40
11772;DHT22;12556;55.748;13.194;2023-06-14T08:31:04;26.80;52.60
11772;DHT22;12556;55.748;13.194;2023-06-14T08:33:32;26.90;52.40
11772;DHT22;12556;55.748;13.194;2023-06-14T08:36:00;27.00;52.40
11772;DHT22;12556;55.748;13.194;2023-06-14T08:38:27;27.30;52.20
11772;DHT22;12556;55.748;13.194;2023-06-14T08:40:57;27.60;52.40
11772;DHT22;12556;55.748;13.194;2023-06-14T08:43:24;27.90;50.90
11772;DHT22;12556;55.748;13.194;2023-06-14T08:45:56;27.90;50.50
11772;DHT22;12556;55.748;13.194;2023-06-14T08:48:26;27.90;49.60
11772;DHT22;12556;55.748;13.194;2023-06-14T08:50:56;27.90;49.40
11772;DHT22;12556;55.748;13.194;2023-06-14T08:53:28;28.10;49.70
11772;DHT22;12556;55.748;13.194;2023-06-14T08:55:57;28.30;49.90
11772;DHT22;12556;55.748;13.194;2023-06-14T08:58:27;28.80;48.40
11772;DHT22;12556;55.748;13.194;2023-06-14T09:00:55;29.00;46.80
11772;DHT22;12556;55.748;13.194;2023-06-14T09:03:23;29.00;47.30
11772;DHT22;12556;55.748;13.194;2023-06-14T09:05:57;29.00;47.40
11772;DHT22;12556;55.748;13.194;2023-06-14T09:08:26;29.00;47.70
11772;DHT22;12556;55.748;13.194;2023-06-14T09:10:56;29.10;47.50
11772;DHT22;12556;55.748;13.194;2023-06-14T09:13:23;29.10;47.00
11772;DHT22;12556;55.748;13.194;2023-06-14T09:15:50;29.10;46.80
11772;DHT22;12556;55.748;13.194;2023-06-14T09:18:17;29.00;48.00
11772;DHT22;12556;55.748;13.194;2023-06-14T09:20:45;29.50;46.40
11772;DHT22;12556;55.748;13.194;2023-06-14T09:23:20;29.80;45.00
11772;DHT22;12556;55.748;13.194;2023-06-14T09:25:48;30.00;43.70
11772;DHT22;12556;55.748;13.194;2023-06-14T09:28:14;29.80;43.60
11772;DHT22;12556;55.748;13.194;2023-06-14T09:30:41;29.50;44.20
11772;DHT22;12556;55.748;13.194;2023-06-14T09:33:08;29.70;44.30
11772;DHT22;12556;55.748;13.194;2023-06-14T09:35:36;29.50;44.10
11772;DHT22;12556;55.748;13.194;2023-06-14T09:38:03;29.50;44.00
11772;DHT22;12556;55.748;13.194;2023-06-14T09:40:34;29.70;43.60
11772;DHT22;12556;55.748;13.194;2023-06-14T09:43:04;29.90;43.10
11772;DHT22;12556;55.748;13.194;2023-06-14T09:45:31;29.90;42.80
11772;DHT22;12556;55.748;13.194;2023-06-14T09:47:58;29.80;42.50
11772;DHT22;12556;55.748;13.194;2023-06-14T09:50:24;29.90;42.00
11772;DHT22;12556;55.748;13.194;2023-06-14T09:52:52;30.00;42.40
11772;DHT22;12556;55.748;13.194;2023-06-14T09:55:22;30.10;41.80
11772;DHT22;12556;55.748;13.194;2023-06-14T09:57:51;30.30;41.70
11772;DHT22;12556;55.748;13.194;2023-06-14T10:00:20;30.50;41.70
11772;DHT22;12556;55.748;13.194;2023-06-14T10:02:53;30.80;42.00
11772;DHT22;12556;55.748;13.194;2023-06-14T10:05:21;31.00;41.10
11772;DHT22;12556;55.748;13.194;2023-06-14T10:07:53;30.50;41.30
11772;DHT22;12556;55.748;13.194;2023-06-14T10:10:20;30.20;41.90
11772;DHT22;12556;55.748;13.194;2023-06-14T10:12:47;30.20;42.30
11772;DHT22;12556;55.748;13.194;2023-06-14T10:15:20;30.20;42.10
11772;DHT22;12556;55.748;13.194;2023-06-14T10:17:52;30.40;41.70
11772;DHT22;12556;55.748;13.194;2023-06-14T10:20:28;30.30;41.40
11772;DHT22;12556;55.748;13.194;2023-06-14T10:23:01;30.10;41.40
11772;DHT22;12556;55.748;13.194;2023-06-14T10:25:31;30.20;41.30
11772;DHT22;12556;55.748;13.194;2023-06-14T10:28:15;30.30;41.80
11772;DHT22;12556;55.748;13.194;2023-06-14T10:31:08;30.10;41.60
11772;DHT22;12556;55.748;13.194;2023-06-14T10:33:39;30.10;41.10
11772;DHT22;12556;55.748;13.194;2023-06-14T10:36:11;30.30;41.00
11772;DHT22;12556;55.748;13.194;2023-06-14T10:38:58;30.70;41.00
11772;DHT22;12556;55.748;13.194;2023-06-14T10:41:27;31.10;40.20
11772;DHT22;12556;55.748;13.194;2023-06-14T10:46:58;30.80;39.30
11772;DHT22;12556;55.748;13.194;2023-06-14T10:49:41;31.20;39.40
11772;DHT22;12556;55.748;13.194;2023-06-14T10:52:12;31.60;39.10
11772;DHT22;12556;55.748;13.194;2023-06-14T10:55:05;31.80;38.80
11772;DHT22;12556;55.748;13.194;2023-06-14T10:57:35;31.90;38.50
11772;DHT22;12556;55.748;13.194;2023-06-14T11:00:03;32.00;37.80
11772;DHT22;12556;55.748;13.194;2023-06-14T11:06:13;31.60;38.20
11772;DHT22;12556;55.748;13.194;2023-06-14T11:09:20;31.60;38.20
11772;DHT22;12556;55.748;13.194;2023-06-14T11:11:54;32.00;37.60
11772;DHT22;12556;55.748;13.194;2023-06-14T11:14:22;31.90;37.40
11772;DHT22;12556;55.748;13.194;2023-06-14T11:16:50;32.10;36.90
11772;DHT22;12556;55.748;13.194;2023-06-14T11:19:17;32.30;36.90
11772;DHT22;12556;55.748;13.194;2023-06-14T11:21:47;32.30;37.00
11772;DHT22;12556;55.748;13.194;2023-06-14T11:24:14;32.00;37.30
11772;DHT22;12556;55.748;13.194;2023-06-14T11:26:41;32.10;37.00
11772;DHT22;12556;55.748;13.194;2023-06-14T11:29:08;32.40;36.60
11772;DHT22;12556;55.748;13.194;2023-06-14T11:31:35;33.00;36.30
11772;DHT22;12556;55.748;13.194;2023-06-14T11:34:02;33.20;35.90
11772;DHT22;12556;55.748;13.194;2023-06-14T11:36:31;33.40;35.60
11772;DHT22;12556;55.748;13.194;2023-06-14T11:39:00;33.70;35.50
11772;DHT22;12556;55.748;13.194;2023-06-14T11:41:32;33.40;35.00
11772;DHT22;12556;55.748;13.194;2023-06-14T11:44:00;33.10;34.50
11772;DHT22;12556;55.748;13.194;2023-06-14T11:46:27;32.60;34.10
11772;DHT22;12556;55.748;13.194;2023-06-14T11:48:54;32.60;34.60
11772;DHT22;12556;55.748;13.194;2023-06-14T11:51:21;32.20;34.70
11772;DHT22;12556;55.748;13.194;2023-06-14T11:53:48;32.30;34.80
11772;DHT22;12556;55.748;13.194;2023-06-14T11:56:17;32.30;34.60
11772;DHT22;12556;55.748;13.194;2023-06-14T11:58:43;31.90;34.80
11772;DHT22;12556;55.748;13.194;2023-06-14T12:01:15;31.80;35.00
11772;DHT22;12556;55.748;13.194;2023-06-14T12:03:47;31.80;35.50
11772;DHT22;12556;55.748;13.194;2023-06-14T12:06:15;32.10;34.70
11772;DHT22;12556;55.748;13.194;2023-06-14T12:08:43;32.30;33.90
11772;DHT22;12556;55.748;13.194;2023-06-14T12:11:11;32.50;33.00
11772;DHT22;12556;55.748;13.194;2023-06-14T12:13:41;32.50;33.60
11772;DHT22;12556;55.748;13.194;2023-06-14T12:16:08;32.90;33.90
11772;DHT22;12556;55.748;13.194;2023-06-14T12:18:37;33.40;33.70
11772;DHT22;12556;55.748;13.194;2023-06-14T12:21:05;33.10;34.00
11772;DHT22;12556;55.748;13.194;2023-06-14T12:23:43;32.70;34.00
11772;DHT22;12556;55.748;13.194;2023-06-14T12:26:13;32.60;33.20
11772;DHT22;12556;55.748;13.194;2023-06-14T12:28:42;32.60;33.20
11772;DHT22;12556;55.748;13.194;2023-06-14T12:31:10;32.30;34.80
11772;DHT22;12556;55.748;13.194;2023-06-14T12:33:37;32.40;34.00
11772;DHT22;12556;55.748;13.194;2023-06-14T12:36:05;32.40;33.50
11772;DHT22;12556;55.748;13.194;2023-06-14T12:38:32;32.70;33.80
11772;DHT22;12556;55.748;13.194;2023-06-14T12:40:59;33.10;33.70
11772;DHT22;12556;55.748;13.194;2023-06-14T12:43:27;33.50;32.90
11772;DHT22;12556;55.748;13.194;2023-06-14T12:45:55;33.10;32.80
11772;DHT22;12556;55.748;13.194;2023-06-14T12:48:22;33.10;33.20
11772;DHT22;12556;55.748;13.194;2023-06-14T12:50:49;33.00;33.20
11772;DHT22;12556;55.748;13.194;2023-06-14T12:53:16;33.10;33.20
11772;DHT22;12556;55.748;13.194;2023-06-14T12:55:43;33.10;33.40
11772;DHT22;12556;55.748;13.194;2023-06-14T12:58:10;33.00;33.70
11772;DHT22;12556;55.748;13.194;2023-06-14T13:00:39;33.10;33.40
11772;DHT22;12556;55.748;13.194;2023-06-14T13:03:07;33.20;33.40
11772;DHT22;12556;55.748;13.194;2023-06-14T13:05:34;33.30;33.00
11772;DHT22;12556;55.748;13.194;2023-06-14T13:08:03;33.20;33.00
11772;DHT22;12556;55.748;13.194;2023-06-14T13:10:30;33.40;32.60
11772;DHT22;12556;55.748;13.194;2023-06-14T13:12:57;33.60;32.90
11772;DHT22;12556;55.748;13.194;2023-06-14T13:15:25;33.50;33.10
11772;DHT22;12556;55.748;13.194;2023-06-14T13:17:52;33.40;33.30
11772;DHT22;12556;55.748;13.194;2023-06-14T13:20:22;33.30;33.60
11772;DHT22;12556;55.748;13.194;2023-06-14T13:22:48;33.50;33.20
11772;DHT22;12556;55.748;13.194;2023-06-14T13:25:16;34.10;32.70
11772;DHT22;12556;55.748;13.194;2023-06-14T13:27:42;34.40;32.30
11772;DHT22;12556;55.748;13.194;2023-06-14T13:30:10;34.40;32.70
11772;DHT22;12556;55.748;13.194;2023-06-14T13:32:37;34.30;33.40
11772;DHT22;12556;55.748;13.194;2023-06-14T13:35:05;34.30;33.20
11772;DHT22;12556;55.748;13.194;2023-06-14T13:37:33;34.40;32.70
11772;DHT22;12556;55.748;13.194;2023-06-14T13:40:00;34.50;32.80
11772;DHT22;12556;55.748;13.194;2023-06-14T13:42:28;34.40;32.40
11772;DHT22;12556;55.748;13.194;2023-06-14T13:44:56;34.00;32.10
11772;DHT22;12556;55.748;13.194;2023-06-14T13:47:23;33.70;32.80
11772;DHT22;12556;55.748;13.194;2023-06-14T13:49:50;33.80;33.30
11772;DHT22;12556;55.748;13.194;2023-06-14T13:52:17;33.80;33.10
11772;DHT22;12556;55.748;13.194;2023-06-14T13:54:45;33.80;33.10
11772;DHT22;12556;55.748;13.194;2023-06-14T13:57:12;33.60;32.90
11772;DHT22;12556;55.748;13.194;2023-06-14T13:59:39;33.40;33.60
11772;DHT22;12556;55.748;13.194;2023-06-14T14:02:06;33.30;33.60
11772;DHT22;12556;55.748;13.194;2023-06-14T14:04:34;33.20;33.50
11772;DHT22;12556;55.748;13.194;2023-06-14T14:07:01;33.20;34.00
11772;DHT22;12556;55.748;13.194;2023-06-14T14:09:28;33.30;33.30
11772;DHT22;12556;55.748;13.194;2023-06-14T14:11:58;33.40;33.80
11772;DHT22;12556;55.748;13.194;2023-06-14T14:14:25;33.50;33.90
11772;DHT22;12556;55.748;13.194;2023-06-14T14:16:51;33.50;33.40
11772;DHT22;12556;55.748;13.194;2023-06-14T14:19:19;33.40;33.20
11772;DHT22;12556;55.748;13.194;2023-06-14T14:21:45;33.30;33.60
11772;DHT22;12556;55.748;13.194;2023-06-14T14:24:12;33.40;33.10
11772;DHT22;12556;55.748;13.194;2023-06-14T14:26:40;33.60;33.70
11772;DHT22;12556;55.748;13.194;2023-06-14T14:29:08;33.70;34.50
11772;DHT22;12556;55.748;13.194;2023-06-14T14:31:37;33.70;34.90
11772;DHT22;12556;55.748;13.194;2023-06-14T14:34:03;33.50;35.60
11772;DHT22;12556;55.748;13.194;2023-06-14T14:36:31;33.20;35.30
11772;DHT22;12556;55.748;13.194;2023-06-14T14:38:59;33.10;36.00
11772;DHT22;12556;55.748;13.194;2023-06-14T14:41:27;33.10;35.80
11772;DHT22;12556;55.748;13.194;2023-06-14T14:43:54;33.00;36.10
11772;DHT22;12556;55.748;13.194;2023-06-14T14:46:22;33.00;36.40
11772;DHT22;12556;55.748;13.194;2023-06-14T14:48:49;32.90;36.60
11772;DHT22;12556;55.748;13.194;2023-06-14T14:51:16;32.70;36.60
11772;DHT22;12556;55.748;13.194;2023-06-14T14:53:43;32.30;36.70
11772;DHT22;12556;55.748;13.194;2023-06-14T14:56:10;31.90;37.30
11772;DHT22;12556;55.748;13.194;2023-06-14T14:58:37;31.80;37.70
11772;DHT22;12556;55.748;13.194;2023-06-14T15:01:04;31.70;37.60
11772;DHT22;12556;55.748;13.194;2023-06-14T15:03:32;31.60;38.20
11772;DHT22;12556;55.748;13.194;2023-06-14T15:05:59;31.40;38.80
11772;DHT22;12556;55.748;13.194;2023-06-14T15:08:26;31.30;38.60
11772;DHT22;12556;55.748;13.194;2023-06-14T15:10:53;31.00;38.90
11772;DHT22;12556;55.748;13.194;2023-06-14T15:13:19;30.70;39.10
11772;DHT22;12556;55.748;13.194;2023-06-14T15:15:48;30.70;39.40
11772;DHT22;12556;55.748;13.194;2023-06-14T15:18:15;30.50;39.60
11772;DHT22;12556;55.748;13.194;2023-06-14T15:20:43;30.30;40.30
11772;DHT22;12556;55.748;13.194;2023-06-14T15:23:10;30.10;41.00
11772;DHT22;12556;55.748;13.194;2023-06-14T15:25:39;29.70;41.20
11772;DHT22;12556;55.748;13.194;2023-06-14T15:28:06;29.50;41.70